Time;durP1;ratioP1;P1;durP2;ratioP2;P2;SDS_P1;SDS_P2;PMS_P1;PMS_P2;Temp;Humidity;BMP_temperature;BMP_pressure;BME280_temperature;BME280_humidity;BME280_pressure;Samples;Min_cycle;Max_cycle;Signal;HPM_P1;HPM_P2
2022/08/21 00:01:57;;;;;;;;;;;17.40;99.90;;;;;;8436465;28;19919;-69
2022/08/21 00:05:59;;;;;;;;;;;17.30;99.90;;;;;;8419877;28;19928;-69
2022/08/21 00:10:00;;;;;;;;;;;17.30;99.90;;;;;;8422436;28;20011;-69
2022/08/21 00:14:03;;;;;;;;;;;17.30;99.90;;;;;;8421475;28;19932;-69
2022/08/21 00:18:06;;;;;;;;;;;17.30;99.90;;;;;;8422456;28;19940;-69
2022/08/21 00:22:08;;;;;;;;;;;17.20;99.90;;;;;;8395637;28;19955;-69
2022/08/21 00:26:10;;;;;;;;;;;17.20;99.90;;;;;;8422103;28;19927;-69
2022/08/21 00:30:12;;;;;;;;;;;17.10;99.90;;;;;;8432467;28;19920;-69
2022/08/21 00:34:24;;;;;;;;;;;17.10;99.90;;;;;;8412317;28;20294;-69
2022/08/21 00:38:25;;;;;;;;;;;17.10;99.90;;;;;;8403373;28;19996;-69
2022/08/21 00:42:28;;;;;;;;;;;17.00;99.90;;;;;;8408568;28;20245;-69
2022/08/21 00:46:30;;;;;;;;;;;17.00;99.90;;;;;;8431196;28;19923;-69
2022/08/21 00:50:34;;;;;;;;;;;16.90;99.90;;;;;;8423385;28;19927;-69
2022/08/21 00:54:36;;;;;;;;;;;16.90;99.90;;;;;;8408909;28;19920;-69
2022/08/21 00:58:40;;;;;;;;;;;16.80;99.90;;;;;;8426088;28;19919;-69
2022/08/21 01:02:42;;;;;;;;;;;16.80;99.90;;;;;;8412790;28;19924;-69
2022/08/21 01:06:44;;;;;;;;;;;16.70;99.90;;;;;;8420923;28;19927;-69
2022/08/21 01:10:46;;;;;;;;;;;16.70;99.90;;;;;;8443502;28;19923;-69
2022/08/21 01:14:48;;;;;;;;;;;16.70;99.90;;;;;;8417538;28;20351;-69
2022/08/21 01:18:50;;;;;;;;;;;16.60;99.90;;;;;;8422387;28;19928;-69
2022/08/21 01:22:52;;;;;;;;;;;16.60;99.90;;;;;;8404236;28;19932;-69
2022/08/21 01:26:54;;;;;;;;;;;16.60;99.90;;;;;;8424985;28;20389;-69
2022/08/21 01:30:55;;;;;;;;;;;16.50;99.90;;;;;;8420920;28;19943;-69
2022/08/21 01:34:57;;;;;;;;;;;16.50;99.90;;;;;;8384727;28;19920;-69
2022/08/21 01:38:59;;;;;;;;;;;16.50;99.90;;;;;;8422050;28;19927;-69
2022/08/21 01:43:02;;;;;;;;;;;16.50;99.90;;;;;;8424333;28;19919;-69
2022/08/21 01:47:04;;;;;;;;;;;16.50;99.90;;;;;;8388809;28;19939;-69
2022/08/21 01:51:06;;;;;;;;;;;16.50;99.90;;;;;;8385451;28;19924;-69
2022/08/21 01:55:08;;;;;;;;;;;16.40;99.90;;;;;;8424198;28;20030;-69
2022/08/21 01:59:10;;;;;;;;;;;16.30;99.90;;;;;;8396452;28;19928;-69
2022/08/21 02:03:12;;;;;;;;;;;16.30;99.90;;;;;;8380807;28;19925;-69
2022/08/21 02:07:14;;;;;;;;;;;16.30;99.90;;;;;;8394863;28;19920;-69
2022/08/21 02:11:16;;;;;;;;;;;16.20;99.90;;;;;;8429642;28;19920;-69
2022/08/21 02:15:18;;;;;;;;;;;16.20;99.90;;;;;;8431338;27;19920;-69
2022/08/21 02:19:20;;;;;;;;;;;16.10;99.90;;;;;;8411528;28;19924;-69
2022/08/21 02:23:22;;;;;;;;;;;16.10;99.90;;;;;;8429297;28;19929;-69
2022/08/21 02:27:27;;;;;;;;;;;16.10;99.90;;;;;;8421331;28;19920;-69
2022/08/21 02:31:29;;;;;;;;;;;16.00;99.90;;;;;;8431414;28;19924;-69
2022/08/21 02:35:31;;;;;;;;;;;16.00;99.90;;;;;;8415739;28;19920;-69
2022/08/21 02:39:33;;;;;;;;;;;16.00;99.90;;;;;;8421187;28;19939;-69
2022/08/21 02:43:35;;;;;;;;;;;15.90;99.90;;;;;;8443777;28;19929;-69
2022/08/21 02:47:37;;;;;;;;;;;15.90;99.90;;;;;;8431956;28;20395;-69
2022/08/21 02:51:38;;;;;;;;;;;15.90;99.90;;;;;;8453435;28;19923;-69
2022/08/21 02:55:40;;;;;;;;;;;15.80;99.90;;;;;;8433675;27;20354;-69
2022/08/21 02:59:42;;;;;;;;;;;15.80;99.90;;;;;;8421761;28;19924;-69
2022/08/21 03:03:45;;;;;;;;;;;15.80;99.90;;;;;;8415564;28;19920;-69
2022/08/21 03:07:47;;;;;;;;;;;15.80;99.90;;;;;;8422390;28;20274;-69
2022/08/21 03:11:48;;;;;;;;;;;15.70;99.90;;;;;;8455167;28;19931;-69
2022/08/21 03:15:50;;;;;;;;;;;15.70;99.90;;;;;;8416229;28;20405;-69
2022/08/21 03:19:52;;;;;;;;;;;15.70;99.90;;;;;;8408941;28;19928;-69
2022/08/21 03:23:53;;;;;;;;;;;15.70;99.90;;;;;;8406830;28;19927;-69
2022/08/21 03:27:55;;;;;;;;;;;15.60;99.90;;;;;;8446011;28;19920;-69
2022/08/21 03:31:59;;;;;;;;;;;15.60;99.90;;;;;;8409898;28;19935;-69
2022/08/21 03:36:03;;;;;;;;;;;15.50;99.90;;;;;;8398048;28;19920;-69
2022/08/21 03:40:05;;;;;;;;;;;15.50;99.90;;;;;;8410684;28;19928;-69
2022/08/21 03:44:07;;;;;;;;;;;15.40;99.90;;;;;;8400250;28;19920;-69
2022/08/21 03:48:09;;;;;;;;;;;15.40;99.90;;;;;;8434700;28;19927;-69
2022/08/21 03:52:10;;;;;;;;;;;15.40;99.90;;;;;;8426752;28;19923;-69
2022/08/21 03:56:12;;;;;;;;;;;15.40;99.90;;;;;;8426487;27;20022;-69
2022/08/21 04:00:15;;;;;;;;;;;15.40;99.90;;;;;;8420607;28;19927;-69
2022/08/21 04:04:16;;;;;;;;;;;15.30;99.90;;;;;;8402309;28;19924;-69
2022/08/21 04:08:18;;;;;;;;;;;15.30;99.90;;;;;;8425350;28;19927;-69
2022/08/21 04:12:20;;;;;;;;;;;15.30;99.90;;;;;;8397689;28;19920;-69
2022/08/21 04:16:22;;;;;;;;;;;15.30;99.90;;;;;;8407686;28;20279;-68
2022/08/21 04:20:24;;;;;;;;;;;15.30;99.90;;;;;;8436373;28;19919;-69
2022/08/21 04:24:26;;;;;;;;;;;15.30;99.90;;;;;;8414967;28;20316;-69
2022/08/21 04:28:28;;;;;;;;;;;15.20;99.90;;;;;;8408030;28;19928;-69
2022/08/21 04:32:30;;;;;;;;;;;15.20;99.90;;;;;;8395808;28;19920;-69
2022/08/21 04:36:32;;;;;;;;;;;15.20;99.90;;;;;;8408022;28;20272;-69
2022/08/21 04:40:34;;;;;;;;;;;15.10;99.90;;;;;;8419359;28;19924;-69
2022/08/21 04:44:35;;;;;;;;;;;15.10;99.90;;;;;;8415471;28;19924;-69
2022/08/21 04:48:37;;;;;;;;;;;15.10;99.90;;;;;;8420101;28;19920;-68
2022/08/21 04:52:39;;;;;;;;;;;15.10;99.90;;;;;;8427158;27;19920;-69
2022/08/21 04:56:49;;;;;;;;;;;15.10;99.90;;;;;;8409767;28;20367;-68
2022/08/21 05:00:53;;;;;;;;;;;15.00;99.90;;;;;;8414445;28;19935;-68
2022/08/21 05:04:55;;;;;;;;;;;15.00;99.90;;;;;;8413341;28;19920;-69
2022/08/21 05:08:57;;;;;;;;;;;15.00;99.90;;;;;;8389645;28;19929;-69
2022/08/21 05:13:03;;;;;;;;;;;15.10;99.90;;;;;;8403415;28;20094;-69
2022/08/21 05:17:05;;;;;;;;;;;15.10;99.90;;;;;;8432481;28;19947;-69
2022/08/21 05:21:06;;;;;;;;;;;15.10;99.90;;;;;;8418356;28;19931;-69
2022/08/21 05:25:08;;;;;;;;;;;15.20;99.90;;;;;;8422680;28;19920;-68
2022/08/21 05:29:11;;;;;;;;;;;15.30;99.90;;;;;;8440916;28;19919;-69
2022/08/21 05:33:12;;;;;;;;;;;15.30;99.90;;;;;;8407297;28;20396;-68
2022/08/21 05:37:14;;;;;;;;;;;15.40;99.90;;;;;;8418903;28;20229;-69
2022/08/21 05:41:16;;;;;;;;;;;15.40;99.90;;;;;;8409540;28;19920;-69
2022/08/21 05:45:18;;;;;;;;;;;15.50;99.90;;;;;;8426565;28;19924;-68
2022/08/21 05:49:19;;;;;;;;;;;15.60;99.90;;;;;;8400058;28;19927;-68
2022/08/21 05:53:22;;;;;;;;;;;15.60;99.90;;;;;;8406065;28;19927;-69
2022/08/21 05:57:25;;;;;;;;;;;15.70;99.90;;;;;;8410864;28;19923;-69
2022/08/21 06:01:27;;;;;;;;;;;15.90;99.90;;;;;;8401483;28;19921;-69
2022/08/21 06:05:29;;;;;;;;;;;16.00;99.90;;;;;;8407945;28;19928;-68
2022/08/21 06:09:37;;;;;;;;;;;16.10;99.90;;;;;;8434892;28;20283;-69
2022/08/21 06:13:40;;;;;;;;;;;16.20;99.90;;;;;;8389938;28;19924;-69
2022/08/21 06:17:42;;;;;;;;;;;16.30;99.90;;;;;;8445762;27;20374;-69
2022/08/21 06:21:43;;;;;;;;;;;16.40;99.90;;;;;;8424095;28;20363;-69
2022/08/21 06:25:46;;;;;;;;;;;16.50;99.90;;;;;;8417547;28;20732;-69
2022/08/21 06:29:47;;;;;;;;;;;16.50;99.90;;;;;;8432939;28;19920;-69
2022/08/21 06:33:50;;;;;;;;;;;16.70;99.90;;;;;;8410131;28;19927;-69
2022/08/21 06:37:51;;;;;;;;;;;16.80;99.90;;;;;;8416869;28;19927;-68
2022/08/21 06:41:54;;;;;;;;;;;16.80;99.90;;;;;;8399441;28;20016;-69
2022/08/21 06:45:56;;;;;;;;;;;16.90;99.90;;;;;;8398291;28;20011;-69
2022/08/21 06:49:58;;;;;;;;;;;17.00;99.90;;;;;;8421396;28;19919;-69
2022/08/21 06:53:59;;;;;;;;;;;17.00;99.90;;;;;;8417793;28;19924;-69
2022/08/21 06:58:01;;;;;;;;;;;17.10;99.90;;;;;;8384448;28;19942;-69
2022/08/21 07:02:03;;;;;;;;;;;17.20;99.90;;;;;;8422145;28;19923;-69
2022/08/21 07:06:05;;;;;;;;;;;17.30;99.90;;;;;;8427491;28;20382;-69
2022/08/21 07:10:07;;;;;;;;;;;17.40;99.90;;;;;;8423976;28;19931;-69
2022/08/21 07:14:09;;;;;;;;;;;17.40;99.90;;;;;;8423383;28;19919;-69
2022/08/21 07:18:12;;;;;;;;;;;17.50;99.90;;;;;;8416603;28;19928;-69
2022/08/21 07:22:15;;;;;;;;;;;17.50;99.90;;;;;;8405518;28;19993;-69
2022/08/21 07:26:20;;;;;;;;;;;17.60;99.90;;;;;;8422283;28;19927;-68
2022/08/21 07:30:22;;;;;;;;;;;17.70;99.90;;;;;;8419825;28;19943;-68
2022/08/21 07:34:23;;;;;;;;;;;17.80;99.90;;;;;;8427371;28;19924;-68
2022/08/21 07:38:25;;;;;;;;;;;17.80;99.90;;;;;;8413853;28;19924;-68
2022/08/21 07:42:27;;;;;;;;;;;17.90;99.90;;;;;;8433043;27;19920;-68
2022/08/21 07:46:28;;;;;;;;;;;18.00;99.90;;;;;;8427711;28;19927;-69
2022/08/21 07:50:30;;;;;;;;;;;18.00;99.90;;;;;;8430608;28;19931;-69
2022/08/21 07:54:32;;;;;;;;;;;18.10;99.90;;;;;;8437036;28;19920;-69
2022/08/21 07:58:35;;;;;;;;;;;18.20;99.90;;;;;;8436813;28;19920;-69
2022/08/21 08:02:37;;;;;;;;;;;18.30;99.90;;;;;;8435754;28;19927;-68
2022/08/21 08:06:38;;;;;;;;;;;18.40;99.90;;;;;;8428927;28;20280;-69
2022/08/21 08:10:40;;;;;;;;;;;18.40;99.90;;;;;;8439359;28;19934;-69
2022/08/21 08:14:41;;;;;;;;;;;18.50;99.90;;;;;;8431094;28;20071;-69
2022/08/21 08:18:44;;;;;;;;;;;18.60;99.90;;;;;;8426660;28;19927;-68
2022/08/21 08:22:46;;;;;;;;;;;18.70;99.90;;;;;;8434285;28;19920;-69
2022/08/21 08:26:50;;;;;;;;;;;18.80;99.90;;;;;;8439457;28;20212;-69
2022/08/21 08:30:54;;;;;;;;;;;18.90;99.90;;;;;;8443108;27;20010;-69
2022/08/21 08:34:55;;;;;;;;;;;19.00;99.90;;;;;;8436356;28;19934;-69
2022/08/21 08:38:57;;;;;;;;;;;19.10;99.90;;;;;;8422626;28;19919;-69
2022/08/21 08:42:59;;;;;;;;;;;19.30;99.90;;;;;;8437953;28;19927;-69
2022/08/21 08:47:01;;;;;;;;;;;19.40;99.90;;;;;;8431196;28;19926;-69
2022/08/21 08:51:05;;;;;;;;;;;19.50;99.90;;;;;;8422662;28;19923;-69
2022/08/21 08:55:16;;;;;;;;;;;19.60;99.90;;;;;;8431131;28;19920;-69
2022/08/21 08:59:20;;;;;;;;;;;19.70;99.90;;;;;;8418098;28;19927;-69
2022/08/21 09:03:23;;;;;;;;;;;19.80;99.90;;;;;;8406552;28;19920;-69
2022/08/21 09:07:25;;;;;;;;;;;19.80;99.90;;;;;;8399334;28;19920;-69
2022/08/21 09:11:26;;;;;;;;;;;19.90;99.90;;;;;;8417965;28;19920;-69
2022/08/21 09:15:34;;;;;;;;;;;20.00;99.90;;;;;;8434538;27;19920;-69
2022/08/21 09:19:44;;;;;;;;;;;20.00;99.90;;;;;;8415170;28;19928;-69
2022/08/21 09:23:59;;;;;;;;;;;20.20;99.90;;;;;;8414740;28;20532;-69
2022/08/21 09:28:01;;;;;;;;;;;20.20;99.90;;;;;;8415082;28;19920;-69
2022/08/21 09:32:08;;;;;;;;;;;20.20;99.90;;;;;;8433371;28;19919;-69
2022/08/21 09:36:10;;;;;;;;;;;20.20;99.90;;;;;;8412959;28;19923;-69
2022/08/21 09:40:26;;;;;;;;;;;20.20;99.90;;;;;;8406448;28;20050;-69
2022/08/21 09:44:30;;;;;;;;;;;20.30;99.90;;;;;;8420678;28;19928;-69
2022/08/21 09:48:38;;;;;;;;;;;20.50;99.90;;;;;;8416459;28;19920;-69
2022/08/21 09:52:46;;;;;;;;;;;20.60;99.90;;;;;;8441501;28;21114;-69
2022/08/21 10:01:16;;;;;;;;;;;20.80;99.90;;;;;;8426494;28;19928;-69
2022/08/21 10:05:20;;;;;;;;;;;20.90;99.90;;;;;;8427538;28;19924;-69
2022/08/21 10:09:22;;;;;;;;;;;20.90;99.90;;;;;;8415052;28;19920;-69
2022/08/21 10:13:39;;;;;;;;;;;21.00;99.90;;;;;;8434217;28;19929;-69
2022/08/21 10:17:44;;;;;;;;;;;21.00;99.90;;;;;;8420471;28;20397;-69
2022/08/21 10:22:00;;;;;;;;;;;21.10;99.90;;;;;;8396535;28;19928;-69
2022/08/21 10:26:27;;;;;;;8.07;3.42;;;21.20;99.90;;;;;;8418337;28;19925;-69
2022/08/21 10:30:52;;;;;;;5.97;2.80;;;21.40;99.90;;;;;;8411163;28;20423;-69
2022/08/21 10:35:04;;;;;;;5.65;2.30;;;21.40;99.90;;;;;;8402927;28;20043;-69
2022/08/21 10:39:37;;;;;;;5.72;2.15;;;21.50;99.90;;;;;;8392529;28;20435;-69
2022/08/21 10:44:03;;;;;;;6.15;2.28;;;21.60;99.90;;;;;;8395820;28;20044;-69
2022/08/21 10:48:08;;;;;;;;;;;21.60;99.90;;;;;;8408296;28;20063;-69
2022/08/21 10:52:31;;;;;;;8.43;3.00;;;21.70;99.90;;;;;;8405145;28;19935;-69
2022/08/21 10:56:38;;;;;;;8.55;2.95;;;21.90;99.90;;;;;;8412297;28;20101;-69
2022/08/21 11:00:48;;;;;;;5.57;2.30;;;21.90;99.90;;;;;;8415005;28;20189;-69
2022/08/21 11:05:01;;;;;;;7.38;2.20;;;22.00;99.90;;;;;;8414776;28;20071;-69
2022/08/21 11:09:18;;;;;;;4.97;1.73;;;22.10;99.90;;;;;;8400619;28;20085;-69
2022/08/21 11:13:50;;;;;;;6.07;2.40;;;22.20;99.90;;;;;;8422059;28;20044;-69
2022/08/21 11:18:21;;;;;;;6.03;2.10;;;22.30;99.90;;;;;;8417455;28;20040;-69
2022/08/21 11:22:54;;;;;;;5.43;1.80;;;22.40;99.90;;;;;;8436838;28;20056;-69
2022/08/21 11:27:14;;;;;;;5.10;1.90;;;22.40;99.90;;;;;;8418319;28;20082;-69
2022/08/21 11:31:42;;;;;;;5.07;1.60;;;22.50;99.90;;;;;;8408247;28;20045;-69
2022/08/21 11:35:54;;;;;;;5.65;2.40;;;22.70;99.90;;;;;;8406168;28;20667;-69
2022/08/21 11:40:12;;;;;;;7.82;2.50;;;22.90;99.90;;;;;;8432397;28;20044;-69
2022/08/21 11:44:34;;;;;;;5.95;2.33;;;22.90;99.90;;;;;;8427258;28;20206;-69
2022/08/21 11:48:48;;;;;;;6.90;2.40;;;22.90;99.90;;;;;;8420171;28;20051;-69
2022/08/21 11:53:09;;;;;;;6.13;2.40;;;22.80;99.90;;;;;;8410831;28;20071;-69
2022/08/21 11:57:31;;;;;;;5.90;2.42;;;22.80;99.90;;;;;;8436617;28;20052;-69
2022/08/21 12:01:39;;;;;;;7.45;2.20;;;22.80;99.90;;;;;;8418097;28;20055;-69
2022/08/21 12:05:45;;;;;;;4.97;2.10;;;23.00;99.90;;;;;;8443588;28;20048;-69
2022/08/21 12:09:56;;;;;;;6.63;2.10;;;23.10;99.90;;;;;;8427123;28;20051;-70
2022/08/21 12:14:04;;;;;;;5.95;2.10;;;23.10;99.90;;;;;;8438130;28;20105;-69
2022/08/21 12:18:30;;;;;;;4.65;1.80;;;23.10;99.90;;;;;;8424570;28;20052;-70
2022/08/21 12:22:39;;;;;;;5.97;1.73;;;23.10;99.90;;;;;;8438077;28;20066;-70
2022/08/21 12:26:56;;;;;;;6.07;1.73;;;23.10;99.90;;;;;;8436173;28;20071;-70
2022/08/21 12:30:58;;;;;;;3.42;1.60;;;23.00;99.90;;;;;;8420583;28;20048;-70
2022/08/21 12:35:21;;;;;;;4.68;1.77;;;22.90;99.90;;;;;;8420361;28;20052;-69
2022/08/21 12:39:28;;;;;;;9.45;2.47;;;22.90;99.90;;;;;;8417326;28;20036;-69
2022/08/21 12:43:34;;;;;;;5.22;2.03;;;23.00;99.90;;;;;;8416582;28;20048;-70
2022/08/21 12:47:48;;;;;;;6.32;2.00;;;23.10;99.90;;;;;;8413161;28;20056;-70
2022/08/21 12:52:00;;;;;;;5.90;2.13;;;23.20;99.90;;;;;;8386958;28;20045;-69
2022/08/21 12:56:03;;;;;;;6.28;1.70;;;23.40;99.90;;;;;;8406288;28;20044;-69
2022/08/21 13:00:12;;;;;;;3.92;1.40;;;23.50;99.90;;;;;;8393577;28;20064;-70
2022/08/21 13:04:21;;;;;;;3.95;1.50;;;23.50;99.90;;;;;;8395536;28;20055;-69
2022/08/21 13:08:25;;;;;;;5.53;1.58;;;23.50;99.90;;;;;;8396034;28;20424;-69
2022/08/21 13:12:28;;;;;;;5.43;1.60;;;23.40;99.90;;;;;;8388564;28;20041;-69
2022/08/21 13:16:34;;;;;;;5.63;1.50;;;23.30;99.90;;;;;;8396896;28;20438;-69
2022/08/21 13:20:40;;;;;;;4.00;1.60;;;23.30;99.90;;;;;;8400340;28;20069;-70
2022/08/21 13:24:42;;;;;;;5.03;1.90;;;23.30;99.90;;;;;;8391312;28;20502;-69
2022/08/21 13:28:47;;;;;;;3.88;1.60;;;23.40;99.90;;;;;;8430964;28;20123;-69
2022/08/21 13:32:56;;;;;;;5.88;2.00;;;23.40;99.90;;;;;;8398409;28;20036;-70
2022/08/21 13:37:01;;;;;;;3.65;1.50;;;23.50;99.90;;;;;;8402955;28;20145;-70
2022/08/21 13:41:15;;;;;;;4.45;1.77;;;23.70;99.90;;;;;;8387656;28;20059;-70
2022/08/21 13:45:27;;;;;;;3.95;1.60;;;23.70;99.90;;;;;;8389426;28;20460;-70
2022/08/21 13:49:39;;;;;;;5.75;1.70;;;23.80;99.90;;;;;;8409266;28;20047;-70
2022/08/21 13:53:40;;;;;;;5.65;1.90;;;23.80;99.90;;;;;;8397998;28;20067;-70
2022/08/21 13:57:42;;;;;;;6.53;1.90;;;23.70;99.90;;;;;;8430174;28;20057;-70
2022/08/21 14:01:58;;;;;;;4.10;1.58;;;23.70;99.90;;;;;;8437793;28;21090;-70
2022/08/21 14:06:01;;;;;;;4.32;1.63;;;23.50;99.90;;;;;;8413067;28;20047;-70
2022/08/21 14:10:06;;;;;;;4.97;1.50;;;23.50;99.90;;;;;;8417718;28;20048;-70
2022/08/21 14:14:20;;;;;;;5.93;1.83;;;23.50;99.90;;;;;;8436031;28;20048;-70
2022/08/21 14:18:25;;;;;;;6.45;1.60;;;23.50;99.90;;;;;;8407389;28;20040;-70
2022/08/21 14:22:38;;;;;;;4.38;1.70;;;23.60;99.90;;;;;;8440619;28;20051;-69
2022/08/21 14:26:51;;;;;;;6.07;1.80;;;23.50;99.90;;;;;;8401447;28;20407;-70
2022/08/21 14:30:55;;;;;;;5.93;1.60;;;23.50;99.90;;;;;;8432003;28;20043;-70
2022/08/21 14:34:57;;;;;;;4.95;1.65;;;23.40;99.90;;;;;;8419233;28;20040;-70
2022/08/21 14:38:59;;;;;;;4.57;1.52;;;23.30;99.90;;;;;;8412193;28;20170;-70
2022/08/21 14:43:03;;;;;;;5.75;1.70;;;23.30;99.90;;;;;;8431991;28;20044;-70
2022/08/21 14:47:04;;;;;;;7.57;2.17;;;23.20;99.90;;;;;;8407153;28;20403;-69
2022/08/21 14:51:06;;;;;;;4.63;1.60;;;23.20;99.90;;;;;;8400094;28;20052;-69
2022/08/21 14:55:13;;;;;;;4.80;1.90;;;23.20;99.90;;;;;;8402897;28;20056;-70
2022/08/21 14:59:15;;;;;;;5.85;2.00;;;23.20;99.90;;;;;;8398208;28;20055;-70
2022/08/21 15:03:17;;;;;;;5.93;2.00;;;23.20;99.90;;;;;;8410057;28;20044;-69
2022/08/21 15:07:20;;;;;;;4.28;1.92;;;23.20;99.90;;;;;;8413314;28;20424;-69
2022/08/21 15:11:23;;;;;;;6.05;2.22;;;23.20;99.90;;;;;;8419124;28;20049;-69
2022/08/21 15:15:45;;;;;;;6.53;2.20;;;23.10;99.90;;;;;;8412667;28;20075;-69
2022/08/21 15:19:47;;;;;;;5.93;2.08;;;23.10;99.90;;;;;;8408905;28;20070;-69
2022/08/21 15:23:48;;;;;;;4.85;1.40;;;23.10;99.90;;;;;;8400764;28;20040;-69
2022/08/21 15:27:50;;;;;;;3.28;1.52;;;23.00;99.90;;;;;;8410527;28;20120;-69
2022/08/21 15:31:58;;;;;;;5.78;1.90;;;23.00;99.90;;;;;;8417878;28;20047;-69
2022/08/21 15:35:59;;;;;;;4.50;1.65;;;23.00;99.90;;;;;;8389878;28;20518;-69
2022/08/21 15:40:03;;;;;;;6.18;1.80;;;23.10;99.90;;;;;;8415721;28;20040;-69
2022/08/21 15:44:05;;;;;;;4.10;1.52;;;23.10;99.90;;;;;;8412759;28;20048;-69
2022/08/21 15:48:07;;;;;;;5.88;1.50;;;23.20;99.90;;;;;;8405879;28;20147;-70
2022/08/21 15:52:08;;;;;;;3.80;1.50;;;23.30;99.90;;;;;;8412658;28;20051;-70
2022/08/21 15:56:26;;;;;;;4.53;1.48;;;23.50;99.90;;;;;;8387793;28;20047;-69
2022/08/21 16:00:30;;;;;;;3.55;1.40;;;23.90;99.90;;;;;;8421570;28;20142;-70
2022/08/21 16:04:32;;;;;;;2.78;1.13;;;24.30;99.90;;;;;;8418862;28;20052;-70
2022/08/21 16:08:34;;;;;;;;;;;24.80;99.90;;;;;;8401689;28;20051;-70
2022/08/21 16:12:38;;;;;;;;;;;25.20;99.90;;;;;;8397134;28;19928;-70
2022/08/21 16:16:39;;;;;;;;;;;25.40;99.90;;;;;;8385116;28;19934;-70
2022/08/21 16:20:41;;;;;;;;;;;25.40;99.90;;;;;;8382867;28;19920;-70
2022/08/21 16:24:44;;;;;;;;;;;25.20;99.90;;;;;;8390796;28;19927;-70
2022/08/21 16:28:46;;;;;;;;;;;24.90;99.90;;;;;;8383533;28;19924;-70
2022/08/21 16:32:48;;;;;;;;;;;24.60;99.90;;;;;;8381772;28;20061;-70
2022/08/21 16:36:50;;;;;;;;;;;24.40;99.90;;;;;;8381997;28;20009;-70
2022/08/21 16:40:51;;;;;;;;;;;24.20;99.90;;;;;;8380793;28;20339;-70
2022/08/21 16:44:55;;;;;;;;;;;24.20;99.90;;;;;;8386498;28;20630;-70
2022/08/21 16:48:57;;;;;;;;;;;24.10;99.90;;;;;;8387779;28;19924;-69
2022/08/21 16:52:58;;;;;;;;;;;23.90;99.90;;;;;;8376606;28;19924;-70
2022/08/21 16:57:00;;;;;;;;;;;23.80;99.90;;;;;;8384835;28;19928;-69
2022/08/21 17:01:04;;;;;;;;;;;23.70;99.90;;;;;;8385490;28;20014;-70
2022/08/21 17:05:06;;;;;;;;;;;23.60;99.90;;;;;;8380343;28;19923;-70
2022/08/21 17:09:14;;;;;;;;;;;23.50;99.90;;;;;;8385982;28;19920;-70
2022/08/21 17:13:16;;;;;;;;;;;23.50;99.90;;;;;;8384609;28;19935;-70
2022/08/21 17:17:18;;;;;;;;;;;23.30;99.90;;;;;;8386230;28;19920;-70
2022/08/21 17:21:20;;;;;;;;;;;23.20;99.90;;;;;;8386388;28;19978;-70
2022/08/21 17:25:22;;;;;;;;;;;23.20;99.90;;;;;;8401903;27;19924;-70
2022/08/21 17:29:25;;;;;;;;;;;23.10;99.90;;;;;;8384845;28;19931;-70
2022/08/21 17:33:31;;;;;;;;;;;23.10;99.90;;;;;;8386156;28;19924;-69
2022/08/21 17:37:33;;;;;;;;;;;23.00;99.90;;;;;;8386279;28;19920;-69
2022/08/21 17:41:35;;;;;;;;;;;23.00;99.90;;;;;;8385963;28;19928;-69
2022/08/21 17:45:37;;;;;;;;;;;23.00;99.90;;;;;;8386581;28;19928;-70
2022/08/21 17:49:39;;;;;;;;;;;23.00;99.90;;;;;;8376286;28;19924;-70
2022/08/21 17:53:41;;;;;;;5.20;1.40;;;22.90;99.90;;;;;;8382421;28;19927;-70
2022/08/21 17:57:44;;;;;;;5.97;1.58;;;22.90;99.90;;;;;;8376144;28;20044;-70
2022/08/21 18:01:46;;;;;;;6.22;1.55;;;22.80;99.90;;;;;;8386755;28;20048;-70
2022/08/21 18:05:50;;;;;;;4.35;1.70;;;22.80;99.90;;;;;;8377489;28;20502;-70
2022/08/21 18:09:52;;;;;;;4.28;1.38;;;22.70;99.90;;;;;;8386323;28;20044;-70
2022/08/21 18:13:59;;;;;;;;;;;22.70;99.90;;;;;;8383734;28;20048;-70
2022/08/21 18:18:07;;;;;;;;;;;22.70;99.90;;;;;;8374765;28;19927;-70
2022/08/21 18:22:08;;;;;;;;;;;22.70;99.90;;;;;;8378732;28;19935;-69
2022/08/21 18:26:16;;;;;;;;;;;22.60;99.90;;;;;;8386002;28;19940;-70
2022/08/21 18:30:19;;;;;;;;;;;22.50;99.90;;;;;;8384908;28;19925;-69
2022/08/21 18:34:27;;;;;;;;;;;22.50;99.90;;;;;;8383787;28;19935;-69
2022/08/21 18:38:30;;;;;;;;;;;22.50;99.90;;;;;;8385581;28;19978;-69
2022/08/21 18:42:35;;;;;;;;;;;22.40;99.90;;;;;;8376116;28;19919;-69
2022/08/21 18:46:36;;;;;;;;;;;22.30;99.90;;;;;;8380903;28;20975;-69
2022/08/21 18:50:40;;;;;;;3.83;1.48;;;22.30;99.90;;;;;;8385921;28;19924;-69
2022/08/21 18:54:42;;;;;;;4.35;1.88;;;22.20;99.90;;;;;;8383696;28;20040;-69
2022/08/21 18:58:44;;;;;;;4.97;1.70;;;22.10;99.90;;;;;;8382138;28;20060;-69
2022/08/21 19:02:46;;;;;;;4.68;1.92;;;22.00;99.90;;;;;;8390276;28;20052;-69
2022/08/21 19:06:47;;;;;;;5.47;1.83;;;21.90;99.90;;;;;;8391365;28;20376;-69
2022/08/21 19:10:54;;;;;;;4.55;1.73;;;21.80;99.90;;;;;;8391596;28;20052;-69
2022/08/21 19:14:55;;;;;;;6.70;1.77;;;21.70;99.90;;;;;;8390445;28;20040;-69
2022/08/21 19:19:00;;;;;;;4.50;1.70;;;21.70;99.90;;;;;;8391571;28;20048;-70
2022/08/21 19:23:04;;;;;;;3.70;1.30;;;21.60;99.90;;;;;;8392121;28;20056;-70
2022/08/21 19:27:06;;;;;;;4.35;1.50;;;21.60;99.90;;;;;;8387501;28;20059;-70
2022/08/21 19:31:13;;;;;;;5.25;1.70;;;21.50;99.90;;;;;;8391003;28;20055;-69
2022/08/21 19:35:17;;;;;;;;;;;21.40;99.90;;;;;;8387375;28;20458;-70
2022/08/21 19:39:18;;;;;;;;;;;21.40;99.90;;;;;;8385835;28;20504;-70
2022/08/21 19:43:20;;;;;;;;;;;21.30;99.90;;;;;;8386864;28;20287;-70
2022/08/21 19:47:23;;;;;;;;;;;21.30;99.90;;;;;;8387131;28;19952;-69
2022/08/21 19:51:30;;;;;;;;;;;21.20;99.90;;;;;;8391362;28;20018;-69
2022/08/21 19:55:31;;;;;;;;;;;21.10;99.90;;;;;;8388324;28;19920;-70
2022/08/21 19:59:34;;;;;;;;;;;21.10;99.90;;;;;;8376927;28;20398;-69
2022/08/21 20:03:36;;;;;;;;;;;21.00;99.90;;;;;;8387309;28;20363;-70
2022/08/21 20:07:38;;;;;;;;;;;21.00;99.90;;;;;;8383019;28;19959;-69
2022/08/21 20:11:41;;;;;;;;;;;20.90;99.90;;;;;;8386013;28;19932;-69
2022/08/21 20:15:43;;;;;;;;;;;20.90;99.90;;;;;;8378075;28;19934;-69
2022/08/21 20:19:46;;;;;;;;;;;20.80;99.90;;;;;;8389292;28;20370;-70
2022/08/21 20:23:51;;;;;;;;;;;20.70;99.90;;;;;;8390484;28;20023;-69
2022/08/21 20:27:53;;;;;;;;;;;20.70;99.90;;;;;;8402381;27;19920;-69
2022/08/21 20:31:56;;;;;;;;;;;20.60;99.90;;;;;;8388409;28;19920;-70
2022/08/21 20:35:57;;;;;;;;;;;20.60;99.90;;;;;;8387369;28;19924;-70
2022/08/21 20:39:59;;;;;;;;;;;20.60;99.90;;;;;;8401657;28;19928;-69
2022/08/21 20:44:02;;;;;;;;;;;20.50;99.90;;;;;;8384819;28;19920;-70
2022/08/21 20:48:13;;;;;;;;;;;20.50;99.90;;;;;;8387369;28;19924;-69
2022/08/21 20:52:16;;;;;;;;;;;20.40;99.90;;;;;;8384659;28;20021;-69
2022/08/21 20:56:24;;;;;;;;;;;20.40;99.90;;;;;;8384078;28;19943;-69
2022/08/21 21:00:26;;;;;;;;;;;20.40;99.90;;;;;;8406744;27;19920;-69
2022/08/21 21:04:31;;;;;;;;;;;20.30;99.90;;;;;;8411408;28;19935;-69
2022/08/21 21:08:42;;;;;;;;;;;20.30;99.90;;;;;;8388836;28;19920;-69
2022/08/21 21:12:47;;;;;;;;;;;20.30;99.90;;;;;;8407373;28;20410;-69
2022/08/21 21:16:55;;;;;;;;;;;20.20;99.90;;;;;;8413313;28;19923;-70
2022/08/21 21:21:08;;;;;;;;;;;20.20;99.90;;;;;;8412976;28;19920;-69
2022/08/21 21:25:15;;;;;;;;;;;20.20;99.90;;;;;;8414835;28;19924;-70
2022/08/21 21:29:25;;;;;;;;;;;20.10;99.90;;;;;;8409038;28;19935;-69
2022/08/21 21:33:27;;;;;;;;;;;20.10;99.90;;;;;;8413602;28;19924;-69
2022/08/21 21:37:32;;;;;;;;;;;20.00;99.90;;;;;;8402752;28;19974;-69
2022/08/21 21:41:39;;;;;;;;;;;20.00;99.90;;;;;;8408661;28;19924;-69
2022/08/21 21:45:57;;;;;;;;;;;20.00;99.90;;;;;;8409222;28;19920;-69
2022/08/21 21:50:03;;;;;;;;;;;20.00;99.90;;;;;;8405157;28;19920;-69
2022/08/21 21:54:28;;;;;;;;;;;19.90;99.90;;;;;;8420734;28;19920;-69
2022/08/21 21:58:48;;;;;;;;;;;19.90;99.90;;;;;;8418591;28;19932;-70
2022/08/21 22:02:55;;;;;;;;;;;19.90;99.90;;;;;;8411806;28;19920;-69
2022/08/21 22:07:14;;;;;;;;;;;19.90;99.90;;;;;;8413504;28;19931;-69
2022/08/21 22:11:15;;;;;;;;;;;19.80;99.90;;;;;;8398146;28;19927;-69
2022/08/21 22:15:24;;;;;;;;;;;19.80;99.90;;;;;;8403605;28;19920;-69
2022/08/21 22:19:29;;;;;;;;;;;19.80;99.90;;;;;;8417885;28;19935;-69
2022/08/21 22:23:33;;;;;;;;;;;19.80;99.90;;;;;;8412588;28;19920;-69
2022/08/21 22:27:38;;;;;;;;;;;19.70;99.90;;;;;;8411838;28;19920;-69
2022/08/21 22:31:40;;;;;;;;;;;19.70;99.90;;;;;;8412512;28;19939;-69
2022/08/21 22:35:41;;;;;;;;;;;19.70;99.90;;;;;;8409921;28;19920;-69
2022/08/21 22:39:52;;;;;;;;;;;19.70;99.90;;;;;;8408248;28;20288;-69
2022/08/21 22:43:56;;;;;;;;;;;19.70;99.90;;;;;;8428536;28;19923;-69
2022/08/21 22:48:03;;;;;;;;;;;19.80;99.90;;;;;;8413160;28;19927;-69
2022/08/21 22:52:20;;;;;;;;;;;19.80;99.90;;;;;;8417940;28;19926;-69
2022/08/21 22:56:30;;;;;;;;;;;19.80;99.90;;;;;;8422821;28;20291;-69
2022/08/21 23:00:38;;;;;;;;;;;19.80;99.90;;;;;;8416692;28;19928;-69
2022/08/21 23:04:43;;;;;;;;;;;19.80;99.90;;;;;;8417826;28;20531;-69